Time;durP1;ratioP1;P1;durP2;ratioP2;P2;SDS_P1;SDS_P2;PMS_P1;PMS_P2;Temp;Humidity;BMP_temperature;BMP_pressure;BME280_temperature;BME280_humidity;BME280_pressure;Samples;Min_cycle;Max_cycle;Signal;HPM_P1;HPM_P2
2023/04/12 00:01:27;;;;;;;4.83;2.00;;;;;;;;;;5066873;28;20648;-54
2023/04/12 00:03:53;;;;;;;3.93;1.87;;;;;;;;;;5065241;28;20708;-51
2023/04/12 00:06:26;;;;;;;5.17;2.50;;;;;;;;;;5061974;28;20181;-51
2023/04/12 00:08:53;;;;;;;3.57;2.13;;;;;;;;;;5042037;28;20274;-51
2023/04/12 00:11:19;;;;;;;3.27;2.00;;;;;;;;;;5055289;28;20200;-51
2023/04/12 00:13:45;;;;;;;4.30;2.10;;;;;;;;;;5061596;28;20271;-51
2023/04/12 00:16:14;;;;;;;4.60;2.00;;;;;;;;;;5060337;28;20187;-51
2023/04/12 00:18:41;;;;;;;3.40;1.63;;;;;;;;;;5065991;28;20199;-51
2023/04/12 00:21:09;;;;;;;2.73;2.10;;;;;;;;;;5069243;28;20224;-51
2023/04/12 00:23:36;;;;;;;4.57;2.10;;;;;;;;;;5062041;28;20200;-50
2023/04/12 00:26:03;;;;;;;2.13;1.70;;;;;;;;;;5063687;28;20242;-50
2023/04/12 00:28:29;;;;;;;3.30;1.80;;;;;;;;;;5067724;28;20176;-52
2023/04/12 00:30:55;;;;;;;4.07;1.73;;;;;;;;;;5066538;28;20710;-52
2023/04/12 00:33:21;;;;;;;3.57;2.10;;;;;;;;;;5066392;28;20512;-52
2023/04/12 00:35:47;;;;;;;4.47;1.93;;;;;;;;;;5064771;28;20185;-52
2023/04/12 00:38:14;;;;;;;5.50;1.70;;;;;;;;;;5068470;28;20184;-52
2023/04/12 00:40:41;;;;;;;2.67;1.97;;;;;;;;;;5065502;28;20271;-52
2023/04/12 00:43:07;;;;;;;2.77;1.77;;;;;;;;;;5067772;28;20204;-51
2023/04/12 00:45:34;;;;;;;3.53;1.70;;;;;;;;;;5065828;28;20177;-52
2023/04/12 00:48:00;;;;;;;2.20;1.60;;;;;;;;;;5069455;28;20184;-52
2023/04/12 00:50:27;;;;;;;2.67;1.63;;;;;;;;;;5065687;28;20172;-52
2023/04/12 00:52:53;;;;;;;4.57;1.97;;;;;;;;;;5063087;28;20195;-52
2023/04/12 00:55:19;;;;;;;1.97;1.57;;;;;;;;;;5064283;28;20207;-52
2023/04/12 00:57:45;;;;;;;3.23;1.83;;;;;;;;;;5061558;28;20193;-52
2023/04/12 01:00:12;;;;;;;2.77;1.60;;;;;;;;;;5063874;28;20595;-52
2023/04/12 01:02:41;;;;;;;2.80;1.60;;;;;;;;;;5057549;28;20208;-52
2023/04/12 01:05:07;;;;;;;4.17;2.07;;;;;;;;;;5059236;28;20176;-52
2023/04/12 01:07:43;;;;;;;4.00;1.83;;;;;;;;;;5059760;28;20547;-52
2023/04/12 01:10:17;;;;;;;2.87;1.93;;;;;;;;;;5061446;28;20565;-52
2023/04/12 01:12:52;;;;;;;3.90;2.07;;;;;;;;;;5067763;28;20238;-52
2023/04/12 01:15:19;;;;;;;6.80;2.07;;;;;;;;;;5060915;28;20595;-52
2023/04/12 01:17:49;;;;;;;5.37;1.83;;;;;;;;;;5063842;28;20191;-52
2023/04/12 01:20:17;;;;;;;4.07;2.03;;;;;;;;;;5064304;28;20618;-52
2023/04/12 01:22:55;;;;;;;2.50;2.00;;;;;;;;;;5062087;28;20310;-52
2023/04/12 01:25:51;;;;;;;2.50;1.77;;;;;;;;;;5059986;28;20204;-52
2023/04/12 01:28:23;;;;;;;3.17;1.53;;;;;;;;;;5058343;28;20214;-52
2023/04/12 01:30:52;;;;;;;2.37;1.77;;;;;;;;;;5061687;28;20226;-52
2023/04/12 01:33:20;;;;;;;2.80;1.93;;;;;;;;;;5057731;28;20184;-52
2023/04/12 01:35:47;;;;;;;3.93;2.13;;;;;;;;;;5062269;28;20215;-51
2023/04/12 01:38:13;;;;;;;5.40;2.23;;;;;;;;;;5065055;28;20188;-52
2023/04/12 01:40:41;;;;;;;3.00;1.80;;;;;;;;;;5064429;28;20184;-52
2023/04/12 01:43:11;;;;;;;4.37;2.07;;;;;;;;;;5058520;28;20212;-52
2023/04/12 01:45:37;;;;;;;6.30;2.70;;;;;;;;;;5064171;28;20706;-52
2023/04/12 01:48:05;;;;;;;2.87;2.00;;;;;;;;;;5063082;28;20182;-52
2023/04/12 01:50:50;;;;;;;7.57;2.10;;;;;;;;;;5067170;28;20191;-52
2023/04/12 01:53:43;;;;;;;4.47;2.37;;;;;;;;;;5061082;28;20627;-52
2023/04/12 01:56:10;;;;;;;4.47;2.37;;;;;;;;;;5062017;28;20228;-52
2023/04/12 01:58:39;;;;;;;5.57;2.33;;;;;;;;;;5062384;28;20192;-52
2023/04/12 02:01:05;;;;;;;2.93;1.70;;;;;;;;;;5063236;28;20234;-52
2023/04/12 02:03:31;;;;;;;3.57;2.10;;;;;;;;;;5058687;28;20205;-52
2023/04/12 02:05:59;;;;;;;4.13;2.07;;;;;;;;;;5059773;28;20191;-53
2023/04/12 02:08:25;;;;;;;5.27;2.10;;;;;;;;;;5065465;28;20267;-52
2023/04/12 02:10:52;;;;;;;4.33;1.80;;;;;;;;;;5066413;28;20194;-53
2023/04/12 02:13:18;;;;;;;5.37;1.97;;;;;;;;;;5064910;28;20670;-53
2023/04/12 02:15:44;;;;;;;2.70;2.00;;;;;;;;;;5062593;28;20180;-53
2023/04/12 02:18:12;;;;;;;3.77;1.90;;;;;;;;;;5056509;28;20207;-54
2023/04/12 02:20:39;;;;;;;3.13;1.93;;;;;;;;;;5062636;28;20184;-53
2023/04/12 02:23:05;;;;;;;8.67;2.13;;;;;;;;;;5063683;28;20252;-53
2023/04/12 02:25:32;;;;;;;9.10;2.10;;;;;;;;;;5063225;28;20187;-53
2023/04/12 02:27:58;;;;;;;4.33;1.87;;;;;;;;;;5063848;28;20183;-53
2023/04/12 02:30:24;;;;;;;1.53;1.30;;;;;;;;;;5067897;28;20172;-53
2023/04/12 02:32:52;;;;;;;2.70;1.70;;;;;;;;;;5042746;28;20241;-53
2023/04/12 02:35:18;;;;;;;2.90;1.93;;;;;;;;;;5063704;28;20184;-54
2023/04/12 02:37:48;;;;;;;2.03;1.90;;;;;;;;;;5063963;28;20188;-54
2023/04/12 02:40:14;;;;;;;2.50;2.03;;;;;;;;;;5064004;28;20229;-54
2023/04/12 02:42:43;;;;;;;3.17;1.97;;;;;;;;;;5065598;28;20199;-53
2023/04/12 02:45:10;;;;;;;3.83;2.00;;;;;;;;;;5062943;28;20180;-54
2023/04/12 02:47:37;;;;;;;4.10;1.97;;;;;;;;;;5064266;28;20267;-54
2023/04/12 02:50:03;;;;;;;4.20;1.70;;;;;;;;;;5065828;28;20203;-54
2023/04/12 02:52:29;;;;;;;3.50;1.63;;;;;;;;;;5063824;28;20566;-54
2023/04/12 02:54:57;;;;;;;5.47;1.80;;;;;;;;;;5065307;28;20242;-54
2023/04/12 02:57:23;;;;;;;2.00;1.80;;;;;;;;;;5065951;28;20216;-54
2023/04/12 02:59:53;;;;;;;3.87;2.07;;;;;;;;;;5067875;28;20168;-55
2023/04/12 03:02:19;;;;;;;2.70;1.70;;;;;;;;;;5058118;28;20200;-54
2023/04/12 03:04:45;;;;;;;5.07;1.90;;;;;;;;;;5058617;28;20184;-55
2023/04/12 03:07:12;;;;;;;3.73;2.27;;;;;;;;;;5061422;28;20391;-55
2023/04/12 03:09:41;;;;;;;2.93;1.57;;;;;;;;;;5064568;28;20183;-54
2023/04/12 03:12:07;;;;;;;3.23;1.97;;;;;;;;;;5064066;28;20291;-54
2023/04/12 03:14:33;;;;;;;2.23;1.60;;;;;;;;;;5062014;28;20758;-54
2023/04/12 03:16:59;;;;;;;6.03;5.63;;;;;;;;;;5058919;28;20184;-54
2023/04/12 03:19:25;;;;;;;3.13;1.80;;;;;;;;;;5063007;28;20196;-55
2023/04/12 03:21:51;;;;;;;2.23;1.60;;;;;;;;;;5062174;28;20225;-55
2023/04/12 03:24:17;;;;;;;3.17;1.70;;;;;;;;;;5057379;28;20581;-54
2023/04/12 03:26:43;;;;;;;2.00;1.70;;;;;;;;;;5060620;28;20180;-55
2023/04/12 03:29:09;;;;;;;2.93;1.60;;;;;;;;;;5063967;28;20188;-56
2023/04/12 03:31:35;;;;;;;5.23;4.73;;;;;;;;;;5066176;28;20243;-55
2023/04/12 03:34:02;;;;;;;4.47;1.60;;;;;;;;;;5057535;28;20208;-54
2023/04/12 03:36:28;;;;;;;1.73;1.57;;;;;;;;;;5067570;28;20212;-55
2023/04/12 03:38:55;;;;;;;1.87;1.50;;;;;;;;;;5067117;28;20188;-55
2023/04/12 03:41:25;;;;;;;5.33;2.10;;;;;;;;;;5062589;28;20189;-55
2023/04/12 03:43:51;;;;;;;3.13;1.67;;;;;;;;;;5066611;28;20584;-55
2023/04/12 03:46:17;;;;;;;1.67;1.50;;;;;;;;;;5063276;28;20689;-54
2023/04/12 03:48:43;;;;;;;3.83;1.50;;;;;;;;;;5067420;28;20188;-54
2023/04/12 03:51:12;;;;;;;2.67;1.80;;;;;;;;;;5069079;28;20184;-53
2023/04/12 03:53:38;;;;;;;3.40;2.13;;;;;;;;;;5066211;28;20216;-54
2023/04/12 03:56:05;;;;;;;1.77;1.67;;;;;;;;;;5069669;28;20188;-54
2023/04/12 03:58:32;;;;;;;1.40;1.30;;;;;;;;;;5064938;28;20276;-54
2023/04/12 04:01:00;;;;;;;5.00;1.57;;;;;;;;;;5067910;28;20655;-55
2023/04/12 04:03:28;;;;;;;1.57;1.47;;;;;;;;;;5068577;28;20212;-54
2023/04/12 04:05:54;;;;;;;2.00;1.47;;;;;;;;;;5059746;28;20307;-54
2023/04/12 04:08:21;;;;;;;2.60;1.50;;;;;;;;;;5064861;28;20782;-55
2023/04/12 04:10:47;;;;;;;2.00;1.43;;;;;;;;;;5068636;28;20173;-54
2023/04/12 04:13:13;;;;;;;2.17;1.70;;;;;;;;;;5061284;28;20287;-54
2023/04/12 04:15:39;;;;;;;1.97;1.20;;;;;;;;;;5067243;28;20818;-54
2023/04/12 04:18:05;;;;;;;2.70;1.40;;;;;;;;;;5067647;28;20228;-55
2023/04/12 04:20:31;;;;;;;2.50;1.73;;;;;;;;;;5066677;28;20632;-55
2023/04/12 04:22:58;;;;;;;2.77;1.60;;;;;;;;;;5066684;28;20695;-55
2023/04/12 04:25:28;;;;;;;4.70;2.10;;;;;;;;;;5065389;28;20185;-54
2023/04/12 04:27:55;;;;;;;1.93;1.57;;;;;;;;;;5066001;28;20186;-55
2023/04/12 04:30:22;;;;;;;1.70;1.40;;;;;;;;;;5050638;28;20228;-55
2023/04/12 04:32:48;;;;;;;2.80;1.30;;;;;;;;;;5068130;28;20219;-54
2023/04/12 04:35:16;;;;;;;2.77;1.53;;;;;;;;;;5064475;28;20595;-54
2023/04/12 04:37:42;;;;;;;1.50;1.40;;;;;;;;;;5067677;28;20208;-54
2023/04/12 04:40:10;;;;;;;1.87;1.77;;;;;;;;;;5066794;28;20222;-54
2023/04/12 04:42:38;;;;;;;1.83;1.57;;;;;;;;;;5067760;28;21069;-54
2023/04/12 04:45:11;;;;;;;2.73;1.20;;;;;;;;;;5065800;28;20592;-55
2023/04/12 04:47:38;;;;;;;1.90;1.70;;;;;;;;;;5067118;28;20200;-55
2023/04/12 04:50:05;;;;;;;2.50;1.77;;;;;;;;;;5063845;28;20180;-55
2023/04/12 04:52:31;;;;;;;2.13;1.93;;;;;;;;;;5064243;28;20267;-56
2023/04/12 04:54:57;;;;;;;2.47;1.60;;;;;;;;;;5061041;28;20204;-55
2023/04/12 04:57:23;;;;;;;1.60;1.50;;;;;;;;;;5062665;28;20181;-55
2023/04/12 04:59:50;;;;;;;2.23;1.40;;;;;;;;;;5066080;28;20181;-55
2023/04/12 05:02:16;;;;;;;4.30;2.63;;;;;;;;;;5059912;28;20679;-55
2023/04/12 05:04:42;;;;;;;2.23;2.00;;;;;;;;;;5060920;28;20207;-54
2023/04/12 05:07:08;;;;;;;1.50;1.40;;;;;;;;;;5065172;28;20184;-54
2023/04/12 05:09:34;;;;;;;2.60;2.07;;;;;;;;;;5063229;28;20187;-54
2023/04/12 05:12:00;;;;;;;3.43;1.40;;;;;;;;;;5058734;28;20625;-54
2023/04/12 05:14:26;;;;;;;3.00;1.60;;;;;;;;;;5053888;28;20234;-55
2023/04/12 05:16:52;;;;;;;4.23;1.27;;;;;;;;;;5063004;28;20284;-54
2023/04/12 05:19:18;;;;;;;1.77;1.30;;;;;;;;;;5063699;28;20181;-54
2023/04/12 05:21:44;;;;;;;1.40;1.30;;;;;;;;;;5065003;28;20300;-54
2023/04/12 05:24:11;;;;;;;2.37;1.40;;;;;;;;;;5061280;28;20191;-56
2023/04/12 05:26:37;;;;;;;3.37;1.60;;;;;;;;;;5067598;28;20176;-55
2023/04/12 05:29:03;;;;;;;2.30;1.33;;;;;;;;;;5067038;28;20303;-55
2023/04/12 05:31:29;;;;;;;1.87;1.63;;;;;;;;;;5062730;28;20233;-55
2023/04/12 05:33:55;;;;;;;1.50;1.40;;;;;;;;;;5062936;28;20591;-56
2023/04/12 05:36:21;;;;;;;3.43;2.33;;;;;;;;;;5065975;28;20230;-55
2023/04/12 05:38:47;;;;;;;2.47;1.50;;;;;;;;;;5062001;28;20189;-56
2023/04/12 05:41:13;;;;;;;2.20;1.37;;;;;;;;;;5062333;28;20176;-55
2023/04/12 05:43:39;;;;;;;1.90;1.60;;;;;;;;;;5060255;28;20196;-55
2023/04/12 05:46:08;;;;;;;2.57;1.50;;;;;;;;;;5065804;28;20640;-56
2023/04/12 05:48:34;;;;;;;2.67;1.60;;;;;;;;;;5065136;28;20181;-55
2023/04/12 05:51:01;;;;;;;3.17;2.07;;;;;;;;;;5064657;28;20200;-55
2023/04/12 05:53:28;;;;;;;1.57;1.47;;;;;;;;;;5065065;28;20192;-55
2023/04/12 05:55:54;;;;;;;3.20;2.07;;;;;;;;;;5063015;28;20750;-55
2023/04/12 05:58:20;;;;;;;2.13;1.70;;;;;;;;;;5059999;28;20259;-55
2023/04/12 06:00:48;;;;;;;2.40;1.30;;;;;;;;;;5054879;28;20678;-55
2023/04/12 06:03:14;;;;;;;2.53;1.83;;;;;;;;;;5063498;28;20204;-55
2023/04/12 06:05:40;;;;;;;3.90;1.60;;;;;;;;;;5064875;28;20200;-55
2023/04/12 06:08:07;;;;;;;2.10;1.60;;;;;;;;;;5064941;28;20199;-55
2023/04/12 06:10:33;;;;;;;2.90;1.63;;;;;;;;;;5060298;28;20238;-55
2023/04/12 06:12:59;;;;;;;3.23;2.07;;;;;;;;;;5066311;28;20286;-55
2023/04/12 06:15:25;;;;;;;2.60;1.77;;;;;;;;;;5063705;28;20188;-56
2023/04/12 06:17:51;;;;;;;2.70;1.53;;;;;;;;;;5067274;28;20705;-55
2023/04/12 06:20:17;;;;;;;3.97;1.77;;;;;;;;;;5066438;28;20180;-55
2023/04/12 06:22:43;;;;;;;2.10;1.60;;;;;;;;;;5067278;28;20686;-55
2023/04/12 06:25:10;;;;;;;1.87;1.53;;;;;;;;;;5066241;28;20195;-55
2023/04/12 06:27:36;;;;;;;1.63;1.50;;;;;;;;;;5066410;28;20192;-54
2023/04/12 06:30:02;;;;;;;2.43;1.93;;;;;;;;;;5068064;28;20195;-55
2023/04/12 06:32:28;;;;;;;2.07;1.57;;;;;;;;;;5061714;28;20184;-55
2023/04/12 06:34:54;;;;;;;3.40;2.17;;;;;;;;;;5058039;28;20184;-55
2023/04/12 06:37:21;;;;;;;1.43;1.33;;;;;;;;;;5055433;28;20181;-55
2023/04/12 06:39:47;;;;;;;3.03;1.67;;;;;;;;;;5061879;28;20547;-57
2023/04/12 06:42:13;;;;;;;1.80;1.53;;;;;;;;;;5047186;28;20204;-55
2023/04/12 06:44:40;;;;;;;2.27;1.50;;;;;;;;;;5061880;28;20632;-56
2023/04/12 06:47:06;;;;;;;4.07;1.73;;;;;;;;;;5065391;28;20211;-56
2023/04/12 06:49:33;;;;;;;1.60;1.50;;;;;;;;;;5067515;28;20184;-56
2023/04/12 06:52:00;;;;;;;2.50;1.53;;;;;;;;;;5067952;28;20184;-56
2023/04/12 06:54:26;;;;;;;1.73;1.53;;;;;;;;;;5065932;28;20613;-55
2023/04/12 06:56:53;;;;;;;2.30;1.77;;;;;;;;;;5057098;28;20547;-56
2023/04/12 06:59:20;;;;;;;2.67;1.43;;;;;;;;;;5059128;28;20590;-56
2023/04/12 07:01:46;;;;;;;1.60;1.50;;;;;;;;;;5060593;28;20189;-56
2023/04/12 07:04:12;;;;;;;1.63;1.50;;;;;;;;;;5064864;28;20193;-56
2023/04/12 07:06:38;;;;;;;1.97;1.67;;;;;;;;;;5065335;28;20270;-56
2023/04/12 07:09:05;;;;;;;2.37;1.63;;;;;;;;;;5062594;28;20193;-55
2023/04/12 07:11:31;;;;;;;2.10;1.57;;;;;;;;;;5045171;28;20287;-55
2023/04/12 07:13:58;;;;;;;1.80;1.60;;;;;;;;;;5046025;28;20208;-55
2023/04/12 07:16:24;;;;;;;1.40;1.30;;;;;;;;;;5060210;28;20185;-55
2023/04/12 07:18:51;;;;;;;1.60;1.33;;;;;;;;;;5060810;28;20176;-55
2023/04/12 07:21:17;;;;;;;2.93;1.60;;;;;;;;;;5069054;28;20733;-56
2023/04/12 07:23:45;;;;;;;1.73;1.43;;;;;;;;;;5058611;28;20240;-56
2023/04/12 07:26:11;;;;;;;2.00;1.30;;;;;;;;;;5063683;28;20180;-55
2023/04/12 07:28:38;;;;;;;1.40;1.30;;;;;;;;;;5063719;28;20194;-55
2023/04/12 07:31:05;;;;;;;1.57;1.47;;;;;;;;;;5044397;28;20180;-55
2023/04/12 07:33:33;;;;;;;1.37;1.27;;;;;;;;;;5060577;28;20274;-56
2023/04/12 07:35:59;;;;;;;1.50;1.40;;;;;;;;;;5063310;28;20183;-55
2023/04/12 07:38:25;;;;;;;2.00;1.80;;;;;;;;;;5063002;28;20188;-56
2023/04/12 07:40:52;;;;;;;1.47;1.37;;;;;;;;;;5061728;28;20241;-56
2023/04/12 07:43:18;;;;;;;1.93;1.40;;;;;;;;;;5064588;28;20250;-55
2023/04/12 07:45:44;;;;;;;1.20;1.10;;;;;;;;;;5062924;28;20225;-55
2023/04/12 07:48:11;;;;;;;1.40;1.30;;;;;;;;;;5043941;28;20185;-55
2023/04/12 07:50:38;;;;;;;1.67;1.50;;;;;;;;;;5062616;28;20533;-55
2023/04/12 07:53:18;;;;;;;1.40;1.30;;;;;;;;;;5059392;28;20192;-55
2023/04/12 07:55:45;;;;;;;1.40;1.40;;;;;;;;;;5063980;28;20256;-55
2023/04/12 07:58:11;;;;;;;1.47;1.37;;;;;;;;;;5068442;28;20234;-55
2023/04/12 08:00:38;;;;;;;1.50;1.40;;;;;;;;;;5068654;28;20176;-54
2023/04/12 08:03:04;;;;;;;1.63;1.53;;;;;;;;;;5060508;28;20208;-55
2023/04/12 08:05:31;;;;;;;2.47;1.43;;;;;;;;;;5039197;28;20875;-55
2023/04/12 08:07:57;;;;;;;1.40;1.30;;;;;;;;;;5067635;28;20303;-54
2023/04/12 08:10:23;;;;;;;1.40;1.30;;;;;;;;;;5064104;28;20776;-55
2023/04/12 08:12:50;;;;;;;1.50;1.40;;;;;;;;;;5069559;28;20756;-54
2023/04/12 08:15:16;;;;;;;1.43;1.33;;;;;;;;;;5063239;28;20260;-54
2023/04/12 08:17:43;;;;;;;1.80;1.40;;;;;;;;;;5048917;28;20523;-54
2023/04/12 08:20:10;;;;;;;2.40;1.40;;;;;;;;;;5064640;28;20196;-54
2023/04/12 08:22:36;;;;;;;2.20;1.60;;;;;;;;;;5055208;28;21275;-54
2023/04/12 08:25:02;;;;;;;1.67;1.57;;;;;;;;;;5066421;28;20315;-55
2023/04/12 08:27:29;;;;;;;1.43;1.33;;;;;;;;;;5067515;28;20181;-54
2023/04/12 08:29:56;;;;;;;1.80;1.47;;;;;;;;;;5061674;28;20627;-54
2023/04/12 08:32:23;;;;;;;2.20;1.57;;;;;;;;;;5059611;28;20176;-54
2023/04/12 08:34:49;;;;;;;1.60;1.50;;;;;;;;;;5045387;28;20184;-55
2023/04/12 08:37:16;;;;;;;2.03;1.50;;;;;;;;;;5059718;28;20255;-55
2023/04/12 08:39:43;;;;;;;1.40;1.30;;;;;;;;;;5059259;28;20187;-54
2023/04/12 08:42:10;;;;;;;1.53;1.43;;;;;;;;;;5039774;28;20204;-54
2023/04/12 08:44:37;;;;;;;1.37;1.27;;;;;;;;;;5065992;28;20221;-55
2023/04/12 08:47:04;;;;;;;1.90;1.60;;;;;;;;;;5056414;28;20663;-54
2023/04/12 08:49:31;;;;;;;1.30;1.20;;;;;;;;;;5061973;28;20185;-54
2023/04/12 08:52:04;;;;;;;1.60;1.50;;;;;;;;;;5056105;28;20207;-54
2023/04/12 08:54:31;;;;;;;1.47;1.37;;;;;;;;;;5060878;28;20564;-54
2023/04/12 08:56:59;;;;;;;1.90;1.73;;;;;;;;;;5060660;28;20177;-54
2023/04/12 08:59:29;;;;;;;1.93;1.60;;;;;;;;;;5044868;28;20231;-55
2023/04/12 09:01:56;;;;;;;1.57;1.47;;;;;;;;;;5058555;28;20211;-55
2023/04/12 09:04:23;;;;;;;2.70;1.50;;;;;;;;;;5063351;28;20176;-55
2023/04/12 09:06:49;;;;;;;2.20;1.40;;;;;;;;;;5063008;28;20172;-54
2023/04/12 09:09:16;;;;;;;1.50;1.40;;;;;;;;;;5059860;28;20173;-55
2023/04/12 09:11:45;;;;;;;1.30;1.20;;;;;;;;;;5061962;28;20478;-54
2023/04/12 09:14:21;;;;;;;1.93;1.50;;;;;;;;;;5065953;28;20260;-55
2023/04/12 09:16:48;;;;;;;1.60;1.50;;;;;;;;;;5052429;28;20176;-55
2023/04/12 09:19:15;;;;;;;1.43;1.33;;;;;;;;;;5066433;28;20188;-55
2023/04/12 09:21:52;;;;;;;2.50;1.50;;;;;;;;;;5068621;28;20593;-55
2023/04/12 09:24:22;;;;;;;1.80;1.40;;;;;;;;;;5059986;28;20541;-54
2023/04/12 09:26:49;;;;;;;1.80;1.70;;;;;;;;;;5048463;28;20188;-55
2023/04/12 09:29:24;;;;;;;1.43;1.33;;;;;;;;;;5064732;28;20180;-55
2023/04/12 09:32:04;;;;;;;1.43;1.27;;;;;;;;;;5064135;28;20172;-55
2023/04/12 09:34:30;;;;;;;2.70;1.60;;;;;;;;;;5062930;28;20709;-55
2023/04/12 09:36:57;;;;;;;1.93;1.50;;;;;;;;;;5066568;28;20663;-55
2023/04/12 09:39:33;;;;;;;1.77;1.67;;;;;;;;;;5061924;28;20693;-59
2023/04/12 09:42:06;;;;;;;1.53;1.43;;;;;;;;;;5063332;28;20238;-55
2023/04/12 09:44:33;;;;;;;1.70;1.60;;;;;;;;;;5066694;28;20589;-55
2023/04/12 09:47:00;;;;;;;1.60;1.50;;;;;;;;;;5065684;28;20733;-55
2023/04/12 09:49:56;;;;;;;1.60;1.50;;;;;;;;;;5068173;28;20210;-55
2023/04/12 09:52:22;;;;;;;2.43;2.00;;;;;;;;;;5044989;28;20674;-55
2023/04/12 09:54:49;;;;;;;1.67;1.57;;;;;;;;;;5063915;28;20646;-55
2023/04/12 09:57:21;;;;;;;1.40;1.30;;;;;;;;;;5049759;28;20198;-54
2023/04/12 09:59:51;;;;;;;1.40;1.30;;;;;;;;;;5064463;28;20443;-55
2023/04/12 10:02:19;;;;;;;2.80;1.60;;;;;;;;;;5064511;28;20694;-55
2023/04/12 10:04:48;;;;;;;1.63;1.53;;;;;;;;;;5061954;28;20873;-55
2023/04/12 10:07:15;;;;;;;3.60;1.87;;;;;;;;;;5065061;28;20181;-55
2023/04/12 10:09:42;;;;;;;1.50;1.40;;;;;;;;;;5064080;28;20204;-55
2023/04/12 10:12:10;;;;;;;1.80;1.70;;;;;;;;;;5054005;28;20289;-55
2023/04/12 10:14:37;;;;;;;1.70;1.60;;;;;;;;;;5059829;28;20187;-56
2023/04/12 10:17:04;;;;;;;1.70;1.60;;;;;;;;;;5060949;28;20231;-55
2023/04/12 10:19:34;;;;;;;1.67;1.57;;;;;;;;;;5064633;28;20218;-55
2023/04/12 10:22:01;;;;;;;2.00;1.60;;;;;;;;;;5055807;28;20606;-56
2023/04/12 10:24:28;;;;;;;1.30;1.20;;;;;;;;;;5055179;28;20196;-53
2023/04/12 10:26:59;;;;;;;2.00;1.90;;;;;;;;;;5057016;28;20211;-57
2023/04/12 10:29:25;;;;;;;3.20;2.53;;;;;;;;;;5064892;28;20192;-55
2023/04/12 10:31:51;;;;;;;4.37;2.33;;;;;;;;;;5056800;28;20196;-56
2023/04/12 10:34:18;;;;;;;3.13;2.70;;;;;;;;;;5057552;28;20188;-56
2023/04/12 10:36:51;;;;;;;5.07;2.60;;;;;;;;;;5063175;28;20193;-56
2023/04/12 10:39:17;;;;;;;3.20;2.47;;;;;;;;;;5061608;28;20656;-56
2023/04/12 10:42:02;;;;;;;2.50;2.30;;;;;;;;;;5058435;28;20181;-56
2023/04/12 10:44:29;;;;;;;3.23;2.10;;;;;;;;;;5063863;28;20269;-56
2023/04/12 10:46:55;;;;;;;6.47;2.70;;;;;;;;;;5063541;28;20554;-57
2023/04/12 10:49:21;;;;;;;1.80;1.60;;;;;;;;;;5068657;28;20180;-57
2023/04/12 10:52:03;;;;;;;1.90;1.70;;;;;;;;;;5066755;28;20184;-57
2023/04/12 10:54:29;;;;;;;4.27;2.13;;;;;;;;;;5066274;28;20180;-57
2023/04/12 10:56:56;;;;;;;7.77;2.03;;;;;;;;;;5061743;28;20173;-57
2023/04/12 10:59:23;;;;;;;4.83;3.00;;;;;;;;;;5059518;28;20191;-59
2023/04/12 11:02:09;;;;;;;7.73;2.57;;;;;;;;;;5063714;28;20422;-56
2023/04/12 11:04:35;;;;;;;6.77;2.20;;;;;;;;;;5066333;28;20176;-57
2023/04/12 11:07:08;;;;;;;3.73;1.97;;;;;;;;;;5061238;28;20189;-57
2023/04/12 11:09:42;;;;;;;3.10;1.80;;;;;;;;;;5035951;28;20249;-57
2023/04/12 11:12:13;;;;;;;5.97;2.00;;;;;;;;;;5058453;28;20208;-57
2023/04/12 11:14:49;;;;;;;5.47;2.10;;;;;;;;;;5063261;28;20643;-56
2023/04/12 11:17:15;;;;;;;4.23;2.00;;;;;;;;;;5064402;28;20510;-56
2023/04/12 11:19:43;;;;;;;4.63;2.13;;;;;;;;;;5068102;28;20766;-56
2023/04/12 11:22:11;;;;;;;4.90;1.90;;;;;;;;;;5063944;28;20228;-57
2023/04/12 11:24:40;;;;;;;8.70;2.47;;;;;;;;;;5059026;28;20182;-56
2023/04/12 11:27:08;;;;;;;2.07;1.60;;;;;;;;;;5064087;28;20184;-57
2023/04/12 11:29:34;;;;;;;3.73;1.73;;;;;;;;;;5049431;28;20218;-56
2023/04/12 11:32:04;;;;;;;7.33;2.23;;;;;;;;;;5057942;28;20181;-57
2023/04/12 11:34:34;;;;;;;8.47;2.87;;;;;;;;;;5067340;28;20398;-57
2023/04/12 11:37:08;;;;;;;2.73;1.93;;;;;;;;;;5062339;28;20172;-56
2023/04/12 11:39:39;;;;;;;2.73;2.10;;;;;;;;;;5058728;28;20683;-56
2023/04/12 11:42:07;;;;;;;6.30;2.57;;;;;;;;;;5056400;28;20203;-56
2023/04/12 11:44:34;;;;;;;4.00;2.10;;;;;;;;;;5044431;28;20184;-56
2023/04/12 11:47:01;;;;;;;3.30;1.67;;;;;;;;;;5060822;28;20176;-56
2023/04/12 11:49:27;;;;;;;5.70;2.33;;;;;;;;;;5057142;28;20536;-56
2023/04/12 11:52:03;;;;;;;3.60;1.60;;;;;;;;;;5069564;28;20172;-56
2023/04/12 11:54:30;;;;;;;5.37;2.03;;;;;;;;;;5046906;28;20183;-56
2023/04/12 11:56:57;;;;;;;7.10;2.40;;;;;;;;;;5049058;28;21821;-56
2023/04/12 11:59:33;;;;;;;4.47;1.90;;;;;;;;;;5068108;28;20551;-56
2023/04/12 12:02:03;;;;;;;5.43;2.20;;;;;;;;;;5063067;28;20175;-56
2023/04/12 12:04:31;;;;;;;5.47;3.23;;;;;;;;;;5056019;28;20183;-59
2023/04/12 12:06:58;;;;;;;4.80;2.43;;;;;;;;;;5056346;28;20244;-58
2023/04/12 12:09:25;;;;;;;15.27;5.50;;;;;;;;;;5061312;28;20176;-57
2023/04/12 12:11:52;;;;;;;6.37;3.53;;;;;;;;;;5054977;28;20200;-59
2023/04/12 12:14:19;;;;;;;10.53;3.23;;;;;;;;;;5056719;28;21559;-59
2023/04/12 12:16:55;;;;;;;6.13;3.93;;;;;;;;;;5057104;28;21675;-58
2023/04/12 12:19:32;;;;;;;7.37;3.53;;;;;;;;;;5049666;28;20177;-58
2023/04/12 12:22:25;;;;;;;7.33;3.17;;;;;;;;;;5038160;28;20700;-58
2023/04/12 12:25:01;;;;;;;9.30;3.50;;;;;;;;;;5033523;28;20319;-58
2023/04/12 12:27:37;;;;;;;10.37;3.70;;;;;;;;;;5034985;28;20367;-58
2023/04/12 12:30:04;;;;;;;7.77;3.53;;;;;;;;;;5037743;28;21006;-57
2023/04/12 12:32:34;;;;;;;7.97;2.93;;;;;;;;;;5037534;28;20173;-58
2023/04/12 12:35:00;;;;;;;8.60;4.17;;;;;;;;;;5051769;28;20181;-57
2023/04/12 12:37:27;;;;;;;6.37;3.17;;;;;;;;;;5036828;28;20188;-57
2023/04/12 12:40:12;;;;;;;7.47;3.10;;;;;;;;;;5040273;28;20234;-58
2023/04/12 12:43:08;;;;;;;6.17;3.00;;;;;;;;;;5038621;28;20235;-57
2023/04/12 12:45:35;;;;;;;6.33;3.27;;;;;;;;;;5026816;28;20186;-59
2023/04/12 12:48:02;;;;;;;6.97;3.10;;;;;;;;;;5036923;28;20198;-58
2023/04/12 12:50:29;;;;;;;11.00;3.03;;;;;;;;;;5046770;28;20181;-58
2023/04/12 12:52:56;;;;;;;6.30;3.50;;;;;;;;;;5045614;28;20177;-58
2023/04/12 12:55:23;;;;;;;4.03;2.73;;;;;;;;;;5040605;28;20289;-60
2023/04/12 12:57:52;;;;;;;6.90;2.90;;;;;;;;;;5039299;28;20181;-59
2023/04/12 13:00:18;;;;;;;5.40;2.87;;;;;;;;;;5032801;28;20192;-59
2023/04/12 13:02:45;;;;;;;6.63;2.90;;;;;;;;;;5033971;28;20212;-60
2023/04/12 13:05:12;;;;;;;5.30;2.93;;;;;;;;;;5036236;28;21134;-60
2023/04/12 13:07:38;;;;;;;5.97;2.53;;;;;;;;;;5032232;28;20701;-60
2023/04/12 13:10:06;;;;;;;6.90;2.97;;;;;;;;;;5036934;28;20542;-58
2023/04/12 13:12:32;;;;;;;6.73;3.13;;;;;;;;;;5036321;28;20347;-58
2023/04/12 13:15:01;;;;;;;5.93;3.47;;;;;;;;;;5035246;28;20922;-57
2023/04/12 13:17:28;;;;;;;6.47;3.20;;;;;;;;;;5032690;28;20173;-58
2023/04/12 13:19:55;;;;;;;6.33;3.13;;;;;;;;;;5034305;28;20177;-57
2023/04/12 13:22:21;;;;;;;6.73;3.00;;;;;;;;;;5043106;28;20228;-58
2023/04/12 13:24:48;;;;;;;5.60;3.20;;;;;;;;;;5035981;28;20181;-58
2023/04/12 13:27:14;;;;;;;4.73;2.70;;;;;;;;;;5056889;28;20241;-57
2023/04/12 13:29:41;;;;;;;5.53;3.50;;;;;;;;;;5034334;28;20172;-57
2023/04/12 13:32:08;;;;;;;4.83;2.87;;;;;;;;;;5045994;28;20305;-57
2023/04/12 13:34:34;;;;;;;9.27;4.00;;;;;;;;;;5059285;28;20180;-57
2023/04/12 13:37:00;;;;;;;5.43;3.43;;;;;;;;;;5060678;28;20707;-56
2023/04/12 13:39:27;;;;;;;4.63;3.13;;;;;;;;;;5050512;28;20184;-57
2023/04/12 13:41:53;;;;;;;9.00;3.60;;;;;;;;;;5060235;28;20234;-57
2023/04/12 13:44:20;;;;;;;7.50;3.93;;;;;;;;;;5055271;28;20545;-57
2023/04/12 13:46:46;;;;;;;10.80;3.00;;;;;;;;;;5057066;28;20180;-57
2023/04/12 13:49:13;;;;;;;4.87;2.67;;;;;;;;;;5057065;28;20180;-57
2023/04/12 13:51:39;;;;;;;8.57;2.50;;;;;;;;;;5062740;28;20176;-58
2023/04/12 13:54:06;;;;;;;5.50;2.93;;;;;;;;;;5058027;28;20586;-57
2023/04/12 13:56:33;;;;;;;4.87;3.10;;;;;;;;;;5062668;28;20242;-57
2023/04/12 13:58:59;;;;;;;8.90;3.47;;;;;;;;;;5055835;28;20271;-57
2023/04/12 14:01:26;;;;;;;6.87;3.57;;;;;;;;;;5067674;28;20228;-58
2023/04/12 14:03:52;;;;;;;6.50;3.13;;;;;;;;;;5062354;28;20266;-57
2023/04/12 14:06:18;;;;;;;9.70;4.53;;;;;;;;;;5059272;28;20259;-58
2023/04/12 14:08:45;;;;;;;7.47;3.90;;;;;;;;;;5058348;28;20258;-57
2023/04/12 14:11:12;;;;;;;5.03;3.43;;;;;;;;;;5037377;28;20262;-57
2023/04/12 14:13:38;;;;;;;6.83;3.80;;;;;;;;;;5057673;28;20191;-57
2023/04/12 14:16:06;;;;;;;7.43;3.43;;;;;;;;;;5060944;28;20188;-56
2023/04/12 14:18:32;;;;;;;5.83;3.53;;;;;;;;;;5055781;28;20633;-57
2023/04/12 14:20:59;;;;;;;7.10;3.37;;;;;;;;;;5048886;28;20223;-56
2023/04/12 14:23:26;;;;;;;5.30;3.17;;;;;;;;;;5061027;28;20266;-57
2023/04/12 14:25:53;;;;;;;8.27;3.27;;;;;;;;;;5065553;28;20185;-55
2023/04/12 14:28:20;;;;;;;5.93;3.43;;;;;;;;;;5061153;28;20259;-57
2023/04/12 14:30:50;;;;;;;9.90;4.97;;;;;;;;;;5035158;28;20187;-56
2023/04/12 14:33:17;;;;;;;5.67;4.10;;;;;;;;;;5059164;28;20181;-56
2023/04/12 14:35:45;;;;;;;11.10;4.27;;;;;;;;;;5056206;28;20184;-56
2023/04/12 14:38:11;;;;;;;7.93;4.30;;;;;;;;;;5062307;28;20199;-55
2023/04/12 14:40:38;;;;;;;6.33;3.37;;;;;;;;;;5061976;28;20177;-56
2023/04/12 14:43:05;;;;;;;6.07;4.33;;;;;;;;;;5061171;28;20678;-55
2023/04/12 14:45:31;;;;;;;8.87;3.93;;;;;;;;;;5057177;28;20173;-56
2023/04/12 14:47:57;;;;;;;6.57;3.30;;;;;;;;;;5059144;28;20694;-56